Time;durP1;ratioP1;P1;durP2;ratioP2;P2;SDS_P1;SDS_P2;PMS_P1;PMS_P2;Temp;Humidity;BMP_temperature;BMP_pressure;BME280_temperature;BME280_humidity;BME280_pressure;Samples;Min_cycle;Max_cycle;Signal;HPM_P1;HPM_P2
2022/03/06 00:00:48;;;;;;;18.52;12.73;;;0.70;99.90;;;;;;4913454;29;20144;-88
2022/03/06 00:03:14;;;;;;;21.30;13.10;;;0.80;99.90;;;;;;4897537;29;20079;-87
2022/03/06 00:05:40;;;;;;;20.42;13.90;;;0.80;99.90;;;;;;4911882;29;20086;-87
2022/03/06 00:08:06;;;;;;;17.50;11.20;;;0.80;99.90;;;;;;4913474;29;20480;-88
2022/03/06 00:10:32;;;;;;;18.38;11.45;;;0.90;99.90;;;;;;4913266;29;20135;-87
2022/03/06 00:12:58;;;;;;;15.27;11.50;;;0.90;99.90;;;;;;4880775;29;20519;-88
2022/03/06 00:15:33;;;;;;;14.85;10.82;;;0.90;99.90;;;;;;4897422;29;20056;-87
2022/03/06 00:17:58;;;;;;;19.45;11.07;;;0.90;99.90;;;;;;4914235;29;20036;-87
2022/03/06 00:20:27;;;;;;;19.48;10.35;;;1.20;99.90;;;;;;4897110;29;20609;-87
2022/03/06 00:22:53;;;;;;;17.90;10.45;;;1.00;99.90;;;;;;4897316;29;20091;-87
2022/03/06 00:25:19;;;;;;;15.93;10.27;;;1.00;99.90;;;;;;4897390;29;20083;-87
2022/03/06 00:27:44;;;;;;;14.80;9.50;;;1.80;99.90;;;;;;4895873;29;20044;-86
2022/03/06 00:30:11;;;;;;;16.85;10.88;;;1.00;99.90;;;;;;4912798;29;20052;-87
2022/03/06 00:32:42;;;;;;;17.08;10.05;;;1.00;99.90;;;;;;4896995;29;20044;-87
2022/03/06 00:35:09;;;;;;;15.90;10.82;;;1.30;99.90;;;;;;4895707;29;20511;-86
2022/03/06 00:37:35;;;;;;;15.48;10.30;;;1.00;99.90;;;;;;4881069;29;20040;-86
2022/03/06 00:40:02;;;;;;;14.95;9.90;;;1.00;99.90;;;;;;4896474;29;20109;-87
2022/03/06 00:42:28;;;;;;;15.48;10.23;;;1.00;99.90;;;;;;4894993;29;20500;-86
2022/03/06 00:44:54;;;;;;;16.48;9.90;;;1.00;99.90;;;;;;4927590;29;20087;-87
2022/03/06 00:47:22;;;;;;;14.77;9.98;;;1.00;99.90;;;;;;4911201;29;20094;-86
2022/03/06 00:49:48;;;;;;;15.07;9.70;;;0.70;99.90;;;;;;4911794;29;20052;-86
2022/03/06 00:52:25;;;;;;;13.85;9.65;;;0.90;99.90;;;;;;4896373;29;20112;-87
2022/03/06 00:54:51;;;;;;;13.77;8.98;;;1.30;99.90;;;;;;4896001;29;20118;-87
2022/03/06 00:57:17;;;;;;;13.82;8.55;;;0.90;99.90;;;;;;4910706;29;20556;-86
2022/03/06 00:59:42;;;;;;;14.55;8.93;;;1.00;99.90;;;;;;4896207;29;20044;-86
2022/03/06 01:02:08;;;;;;;14.40;8.38;;;1.00;99.90;;;;;;4910610;29;20088;-86
2022/03/06 01:04:34;;;;;;;16.42;9.43;;;1.00;99.90;;;;;;4896489;29;20043;-85
2022/03/06 01:07:05;;;;;;;12.85;8.63;;;1.00;99.90;;;;;;4911691;29;20044;-87
2022/03/06 01:09:31;;;;;;;15.27;8.60;;;1.00;99.90;;;;;;4895814;29;20485;-87
2022/03/06 01:12:15;;;;;;;12.30;7.88;;;0.90;99.90;;;;;;4895673;29;20051;-87
2022/03/06 01:14:40;;;;;;;13.35;8.70;;;1.00;99.90;;;;;;4882783;29;20116;-86
2022/03/06 01:17:09;;;;;;;13.07;6.80;;;0.90;99.90;;;;;;4894939;29;20047;-86
2022/03/06 01:19:35;;;;;;;11.63;7.68;;;1.00;99.90;;;;;;4911374;29;20048;-86
2022/03/06 01:22:01;;;;;;;14.45;7.70;;;1.00;99.90;;;;;;4911643;29;20055;-86
2022/03/06 01:24:26;;;;;;;14.30;8.20;;;1.00;99.90;;;;;;4895171;29;20136;-86
2022/03/06 01:26:52;;;;;;;15.45;8.43;;;1.00;99.90;;;;;;4914446;29;20055;-85
2022/03/06 01:29:18;;;;;;;13.40;7.55;;;1.00;99.90;;;;;;4914345;29;20043;-86
2022/03/06 01:31:44;;;;;;;12.25;7.45;;;1.00;99.90;;;;;;4913955;29;20425;-86
2022/03/06 01:34:10;;;;;;;14.85;7.60;;;1.00;99.90;;;;;;4914238;29;20102;-87
2022/03/06 01:36:37;;;;;;;13.48;7.40;;;1.10;99.90;;;;;;4913928;29;20059;-85
2022/03/06 01:39:07;;;;;;;12.32;7.82;;;1.00;99.90;;;;;;4914163;29;20166;-84
2022/03/06 01:41:34;;;;;;;18.10;8.68;;;1.00;99.90;;;;;;4913873;29;20157;-85
2022/03/06 01:44:00;;;;;;;12.15;7.50;;;1.00;99.90;;;;;;4897918;29;20066;-85
2022/03/06 01:46:26;;;;;;;14.57;8.38;;;1.00;99.90;;;;;;4913875;29;20408;-85
2022/03/06 01:48:52;;;;;;;10.30;6.82;;;1.60;99.90;;;;;;4914345;29;20086;-85
2022/03/06 01:51:18;;;;;;;12.18;7.18;;;1.00;99.90;;;;;;4912864;29;20055;-85
2022/03/06 01:53:44;;;;;;;15.02;8.18;;;2.00;99.90;;;;;;4913846;29;20060;-85
2022/03/06 01:56:12;;;;;;;12.38;7.80;;;1.00;99.90;;;;;;4913331;29;20035;-85
2022/03/06 01:58:39;;;;;;;12.88;7.93;;;1.00;99.90;;;;;;4912600;29;20048;-84
2022/03/06 02:01:04;;;;;;;13.50;8.10;;;1.00;99.90;;;;;;4897800;29;20122;-86
2022/03/06 02:03:30;;;;;;;12.38;7.75;;;1.00;99.90;;;;;;4898062;29;20134;-85
2022/03/06 02:05:56;;;;;;;11.55;7.82;;;1.00;99.90;;;;;;4897112;29;20128;-84
2022/03/06 02:08:22;;;;;;;14.80;7.95;;;1.00;99.90;;;;;;4913775;29;20106;-85
2022/03/06 02:10:50;;;;;;;12.77;6.97;;;1.00;99.90;;;;;;4897753;29;20606;-84
2022/03/06 02:13:16;;;;;;;11.68;6.60;;;1.00;99.90;;;;;;4912495;29;20411;-85
2022/03/06 02:15:44;;;;;;;13.23;6.05;;;1.00;99.90;;;;;;4913950;29;20082;-85
2022/03/06 02:18:10;;;;;;;10.35;5.78;;;1.00;99.90;;;;;;4913668;29;20159;-85
2022/03/06 02:20:37;;;;;;;9.55;4.90;;;1.00;99.90;;;;;;4912993;29;20043;-85
2022/03/06 02:23:03;;;;;;;10.05;5.03;;;1.30;99.90;;;;;;4930647;29;20047;-85
2022/03/06 02:25:31;;;;;;;13.35;5.57;;;1.00;99.90;;;;;;4913506;29;20400;-85
2022/03/06 02:27:58;;;;;;;9.45;5.53;;;1.10;99.90;;;;;;4914155;29;20047;-86
2022/03/06 02:30:27;;;;;;;12.07;5.30;;;1.10;99.90;;;;;;4917553;28;20055;-85
2022/03/06 02:32:54;;;;;;;9.48;4.78;;;1.10;99.90;;;;;;4916595;29;20397;-86
2022/03/06 02:35:21;;;;;;;11.20;5.13;;;1.10;99.90;;;;;;4917366;29;20047;-86
2022/03/06 02:37:47;;;;;;;10.93;5.78;;;1.10;99.90;;;;;;4917504;29;20043;-85
2022/03/06 02:40:14;;;;;;;13.02;4.68;;;1.10;99.90;;;;;;4900947;29;20087;-85
2022/03/06 02:42:43;;;;;;;10.70;5.03;;;1.10;99.90;;;;;;4916855;29;20055;-86
2022/03/06 02:45:14;;;;;;;10.38;4.75;;;1.70;99.90;;;;;;4900941;29;20570;-86
2022/03/06 02:47:40;;;;;;;11.32;5.00;;;1.10;99.90;;;;;;4916899;29;20035;-85
2022/03/06 02:50:09;;;;;;;10.93;4.78;;;1.20;99.90;;;;;;4917459;29;20503;-85
2022/03/06 02:52:35;;;;;;;9.68;4.40;;;1.10;99.90;;;;;;4918134;29;20134;-85
2022/03/06 02:55:02;;;;;;;10.95;5.47;;;1.90;99.90;;;;;;4916744;29;20155;-87
2022/03/06 02:57:27;;;;;;;11.50;5.03;;;1.10;99.90;;;;;;4901339;29;20134;-87
2022/03/06 02:59:53;;;;;;;9.23;4.82;;;1.10;99.90;;;;;;4917412;29;20488;-88
2022/03/06 03:02:37;;;;;;;10.15;4.78;;;1.10;99.90;;;;;;4916146;29;20143;-86
2022/03/06 03:05:05;;;;;;;9.18;5.10;;;1.80;99.90;;;;;;4917663;29;20102;-86
2022/03/06 03:07:31;;;;;;;8.30;4.55;;;1.10;99.90;;;;;;4916823;29;20231;-85
2022/03/06 03:10:01;;;;;;;8.30;4.88;;;1.60;99.90;;;;;;4916842;29;20150;-86
2022/03/06 03:12:27;;;;;;;8.27;4.78;;;1.00;99.90;;;;;;4916416;29;20574;-86
2022/03/06 03:14:53;;;;;;;13.73;4.93;;;1.00;99.90;;;;;;4916940;29;20131;-86
2022/03/06 03:17:22;;;;;;;9.27;5.18;;;2.30;99.90;;;;;;4916522;29;20052;-86
2022/03/06 03:19:52;;;;;;;12.25;5.45;;;0.40;99.90;;;;;;4917213;28;20069;-86
2022/03/06 03:22:18;;;;;;;11.35;5.45;;;1.50;99.90;;;;;;4916276;29;20051;-85
2022/03/06 03:24:44;;;;;;;14.18;4.97;;;0.90;99.90;;;;;;4917401;29;20423;-86
2022/03/06 03:27:16;;;;;;;10.52;5.13;;;0.90;99.90;;;;;;4915472;29;20488;-86
2022/03/06 03:29:50;;;;;;;10.65;5.43;;;0.90;99.90;;;;;;4916158;29;20047;-85
2022/03/06 03:32:24;;;;;;;10.27;4.90;;;0.40;99.90;;;;;;4916117;29;20135;-87
2022/03/06 03:34:49;;;;;;;11.65;5.05;;;1.10;99.90;;;;;;4916709;29;20582;-86
2022/03/06 03:37:16;;;;;;;7.88;4.90;;;0.80;99.90;;;;;;4915457;29;20139;-86
2022/03/06 03:39:41;;;;;;;9.55;5.13;;;0.80;99.90;;;;;;4916023;29;20138;-87
2022/03/06 03:42:13;;;;;;;11.35;4.75;;;0.80;99.90;;;;;;4915961;29;20103;-86
2022/03/06 03:44:38;;;;;;;9.90;5.15;;;0.70;99.90;;;;;;4916079;29;20439;-87
2022/03/06 03:47:04;;;;;;;12.52;4.50;;;0.80;99.90;;;;;;4916224;29;20046;-86
2022/03/06 03:49:33;;;;;;;8.80;4.63;;;0.70;99.90;;;;;;4900535;29;20104;-86
2022/03/06 03:52:05;;;;;;;13.13;5.30;;;0.70;99.90;;;;;;4915780;29;20134;-85
2022/03/06 03:54:40;;;;;;;15.85;5.25;;;0.60;99.90;;;;;;4900670;29;20078;-86
2022/03/06 03:57:05;;;;;;;9.93;5.50;;;0.50;99.90;;;;;;4914280;29;20601;-85
2022/03/06 03:59:31;;;;;;;11.02;5.43;;;0.40;99.90;;;;;;4916240;29;20122;-86
2022/03/06 04:01:57;;;;;;;12.57;5.53;;;1.70;99.90;;;;;;4900210;29;20095;-85
2022/03/06 04:04:22;;;;;;;9.57;5.93;;;0.30;99.90;;;;;;4915047;29;20040;-85
2022/03/06 04:06:48;;;;;;;12.38;5.45;;;0.30;99.90;;;;;;4916771;29;20051;-88
2022/03/06 04:09:14;;;;;;;11.52;5.63;;;0.30;99.90;;;;;;4915789;29;20488;-87
2022/03/06 04:11:39;;;;;;;12.98;5.85;;;0.30;99.90;;;;;;4915387;29;20488;-86
2022/03/06 04:14:08;;;;;;;10.95;5.30;;;0.50;99.90;;;;;;4915551;29;20518;-87
2022/03/06 04:16:40;;;;;;;12.52;5.72;;;0.30;99.90;;;;;;4916151;29;20557;-87
2022/03/06 04:19:07;;;;;;;10.25;5.68;;;2.10;99.90;;;;;;4914875;29;20044;-86
2022/03/06 04:21:32;;;;;;;10.88;5.32;;;0.20;99.90;;;;;;4915899;29;20504;-86
2022/03/06 04:24:08;;;;;;;10.45;5.50;;;0.20;99.90;;;;;;4915771;29;20044;-87
2022/03/06 04:26:39;;;;;;;10.40;5.18;;;0.20;99.90;;;;;;4915095;29;20063;-87
2022/03/06 04:29:05;;;;;;;12.27;5.20;;;0.10;99.90;;;;;;4915724;29;20122;-87
2022/03/06 04:31:31;;;;;;;12.90;5.93;;;0.10;99.90;;;;;;4915681;29;20436;-86
2022/03/06 04:34:00;;;;;;;11.88;5.32;;;2.10;99.90;;;;;;4915117;29;20179;-87
2022/03/06 04:36:26;;;;;;;11.55;5.35;;;0.90;99.90;;;;;;4915907;29;20055;-87
2022/03/06 04:38:52;;;;;;;10.50;5.30;;;0.00;99.90;;;;;;4915552;29;20480;-86
2022/03/06 04:41:18;;;;;;;9.00;4.88;;;0.00;99.90;;;;;;4914051;29;20051;-86
2022/03/06 04:43:46;;;;;;;8.25;4.60;;;-0.10;99.90;;;;;;4915249;29;20078;-86
2022/03/06 04:46:12;;;;;;;9.75;4.80;;;-0.20;99.90;;;;;;4914345;29;20625;-86
2022/03/06 04:48:48;;;;;;;10.15;5.15;;;-0.20;99.90;;;;;;4914873;29;20043;-86
2022/03/06 04:51:14;;;;;;;12.32;5.10;;;-0.30;99.90;;;;;;4915011;29;20384;-85
2022/03/06 04:53:48;;;;;;;11.05;5.40;;;-0.30;99.90;;;;;;4899211;29;20459;-88
2022/03/06 04:56:14;;;;;;;9.20;5.18;;;0.40;99.90;;;;;;4914590;29;20051;-86
2022/03/06 04:58:40;;;;;;;9.90;4.90;;;-0.40;99.90;;;;;;4914925;29;20403;-85
2022/03/06 05:01:06;;;;;;;9.73;4.63;;;-0.40;99.90;;;;;;4913669;29;20083;-86
2022/03/06 05:03:32;;;;;;;13.35;5.30;;;-0.40;99.90;;;;;;4915158;29;20500;-86
2022/03/06 05:05:58;;;;;;;14.43;5.68;;;-0.50;99.90;;;;;;4914641;29;20134;-87
2022/03/06 05:08:26;;;;;;;9.32;5.68;;;-0.50;99.90;;;;;;4914094;29;20091;-86
2022/03/06 05:10:53;;;;;;;13.60;5.00;;;-0.50;99.90;;;;;;4915137;29;20040;-86
2022/03/06 05:13:20;;;;;;;11.10;4.88;;;-0.60;99.90;;;;;;4914860;29;20447;-86
2022/03/06 05:15:45;;;;;;;10.55;5.15;;;0.10;99.90;;;;;;4914749;29;20050;-86
2022/03/06 05:18:17;;;;;;;11.23;4.82;;;-0.60;99.90;;;;;;4914323;29;20047;-85
2022/03/06 05:20:44;;;;;;;12.38;4.88;;;-0.60;99.90;;;;;;4899221;29;20228;-85
2022/03/06 05:23:14;;;;;;;11.45;4.50;;;-0.60;99.90;;;;;;4913517;29;20119;-85
2022/03/06 05:25:40;;;;;;;12.48;4.85;;;-0.70;99.90;;;;;;4914606;29;20143;-85
2022/03/06 05:28:05;;;;;;;13.55;4.65;;;-0.70;99.90;;;;;;4914166;29;20106;-85
2022/03/06 05:30:31;;;;;;;15.23;4.85;;;-0.80;99.90;;;;;;4913709;29;20527;-85
2022/03/06 05:32:57;;;;;;;10.35;4.45;;;-0.70;99.90;;;;;;4914313;29;20066;-85
2022/03/06 05:35:23;;;;;;;9.88;4.85;;;-0.80;99.90;;;;;;4913995;29;20499;-85
2022/03/06 05:37:48;;;;;;;11.55;4.18;;;0.30;99.90;;;;;;4913919;29;20554;-85
2022/03/06 05:40:14;;;;;;;12.07;4.65;;;-0.80;99.90;;;;;;4913469;29;20134;-85
2022/03/06 05:42:40;;;;;;;7.35;4.72;;;-0.80;99.90;;;;;;4912976;29;20480;-85
2022/03/06 05:45:05;;;;;;;9.52;4.75;;;-0.80;99.90;;;;;;4914529;29;20047;-85
2022/03/06 05:47:52;;;;;;;12.35;4.28;;;-0.80;99.90;;;;;;4914218;29;20695;-85
2022/03/06 05:50:17;;;;;;;7.20;4.47;;;-0.80;99.90;;;;;;4912866;29;20055;-85
2022/03/06 05:52:43;;;;;;;10.50;4.35;;;-0.80;99.90;;;;;;4914138;29;20142;-84
2022/03/06 05:55:09;;;;;;;8.82;4.22;;;-0.80;99.90;;;;;;4897991;29;20055;-85
2022/03/06 05:57:36;;;;;;;10.20;4.40;;;0.30;99.90;;;;;;4896694;29;20054;-84
2022/03/06 06:00:05;;;;;;;12.25;5.38;;;-0.80;99.90;;;;;;4897851;28;20043;-85
2022/03/06 06:02:31;;;;;;;8.13;4.60;;;-0.80;99.90;;;;;;4897630;29;20061;-84
2022/03/06 06:04:57;;;;;;;9.68;4.68;;;-0.90;99.90;;;;;;4912412;29;20130;-84
2022/03/06 06:07:25;;;;;;;8.15;4.38;;;-0.90;99.90;;;;;;4897726;29;20075;-84
2022/03/06 06:10:00;;;;;;;10.77;5.00;;;-0.90;99.90;;;;;;4914367;29;20047;-84
2022/03/06 06:12:27;;;;;;;11.25;5.53;;;-0.90;99.90;;;;;;4912216;29;20075;-83
2022/03/06 06:14:53;;;;;;;12.65;5.90;;;-0.80;99.90;;;;;;4913875;29;20054;-84
2022/03/06 06:17:19;;;;;;;10.48;6.00;;;-0.80;99.90;;;;;;4913501;29;20047;-83
2022/03/06 06:19:58;;;;;;;15.65;5.72;;;-0.80;99.90;;;;;;4912888;29;20511;-84
2022/03/06 06:22:23;;;;;;;8.27;4.72;;;0.50;99.90;;;;;;4897512;29;20854;-83
2022/03/06 06:24:55;;;;;;;8.88;4.63;;;-0.70;99.90;;;;;;4912532;29;20052;-83
2022/03/06 06:27:21;;;;;;;11.20;4.18;;;-0.70;99.90;;;;;;4928521;29;20248;-83
2022/03/06 06:29:46;;;;;;;9.07;3.70;;;0.20;99.90;;;;;;4913689;29;20130;-84
2022/03/06 06:32:13;;;;;;;7.68;2.97;;;-0.70;99.90;;;;;;4923625;29;20127;-83
2022/03/06 06:34:38;;;;;;;6.05;3.13;;;-0.70;99.90;;;;;;4897969;29;20059;-83
2022/03/06 06:37:04;;;;;;;6.63;3.63;;;-0.70;99.90;;;;;;4897790;29;20044;-83
2022/03/06 06:39:30;;;;;;;7.70;3.30;;;-0.70;99.90;;;;;;4913143;29;20480;-83
2022/03/06 06:41:56;;;;;;;5.78;3.25;;;-0.60;99.90;;;;;;4913158;29;20091;-84
2022/03/06 06:44:21;;;;;;;9.55;2.78;;;-0.60;99.90;;;;;;4897059;29;20043;-83
2022/03/06 06:46:47;;;;;;;6.07;2.70;;;-0.60;99.90;;;;;;4896976;29;20044;-84
2022/03/06 06:49:22;;;;;;;6.25;3.17;;;-0.60;99.90;;;;;;4897433;29;20055;-85
2022/03/06 06:51:48;;;;;;;5.45;2.80;;;-0.60;99.90;;;;;;4929633;29;20555;-85
2022/03/06 06:54:22;;;;;;;4.78;2.75;;;-0.50;99.90;;;;;;4896262;29;20146;-86
2022/03/06 06:56:49;;;;;;;4.90;2.40;;;-0.60;99.90;;;;;;4897684;29;20187;-85
2022/03/06 06:59:14;;;;;;;6.28;2.65;;;-0.50;99.90;;;;;;4897097;29;20097;-85
2022/03/06 07:01:41;;;;;;;6.55;2.97;;;-0.50;99.90;;;;;;4897597;29;20051;-87
2022/03/06 07:04:25;;;;;;;5.32;2.42;;;-0.40;99.90;;;;;;4927898;29;20052;-85
2022/03/06 07:06:51;;;;;;;7.68;2.70;;;-0.40;99.90;;;;;;4898478;29;20420;-85
2022/03/06 07:09:17;;;;;;;7.22;2.97;;;-0.30;99.90;;;;;;4896647;29;20048;-84
2022/03/06 07:11:42;;;;;;;12.55;2.75;;;-0.30;99.90;;;;;;4913217;29;20043;-85
2022/03/06 07:14:14;;;;;;;6.82;2.55;;;-0.20;99.90;;;;;;4897967;29;20062;-85
2022/03/06 07:16:41;;;;;;;6.28;2.10;;;-0.20;99.90;;;;;;4901453;29;20420;-85
2022/03/06 07:19:07;;;;;;;6.18;2.50;;;0.00;99.90;;;;;;4901311;29;20175;-84
2022/03/06 07:21:45;;;;;;;5.30;2.47;;;0.00;99.90;;;;;;4900020;29;20572;-86
2022/03/06 07:24:11;;;;;;;6.40;2.45;;;1.40;99.90;;;;;;4900568;29;20477;-86
2022/03/06 07:26:36;;;;;;;7.05;2.78;;;0.30;99.90;;;;;;4900741;29;20154;-85
2022/03/06 07:29:03;;;;;;;7.70;3.05;;;0.30;99.90;;;;;;4916081;29;20098;-85
2022/03/06 07:31:28;;;;;;;11.02;2.50;;;0.40;99.90;;;;;;4901162;29;20047;-85
2022/03/06 07:33:54;;;;;;;6.45;2.65;;;0.40;99.90;;;;;;4902504;28;20515;-87
2022/03/06 07:36:26;;;;;;;4.47;2.08;;;0.50;99.90;;;;;;4918139;29;20059;-86
2022/03/06 07:38:51;;;;;;;5.05;2.80;;;0.60;99.90;;;;;;4919873;29;20802;-86
2022/03/06 07:41:23;;;;;;;4.47;2.40;;;1.10;99.90;;;;;;4966570;28;20047;-85
2022/03/06 07:43:52;;;;;;;6.47;2.60;;;0.80;99.90;;;;;;4918905;29;20051;-85
2022/03/06 07:46:18;;;;;;;5.93;2.35;;;0.80;99.90;;;;;;4919088;29;20430;-86
2022/03/06 07:48:43;;;;;;;10.15;3.30;;;1.20;99.90;;;;;;4967307;28;20483;-84
2022/03/06 07:51:19;;;;;;;9.25;2.90;;;0.90;99.90;;;;;;4918263;29;20047;-85
2022/03/06 07:53:45;;;;;;;4.03;2.15;;;1.40;99.90;;;;;;4919050;29;20039;-85
2022/03/06 07:56:17;;;;;;;5.32;2.25;;;1.10;99.90;;;;;;4918044;29;20106;-84
2022/03/06 07:58:42;;;;;;;4.90;2.13;;;1.10;99.90;;;;;;4934942;29;20945;-85
2022/03/06 08:01:08;;;;;;;4.40;2.08;;;1.10;99.90;;;;;;4923846;29;20134;-84
2022/03/06 08:03:33;;;;;;;4.47;2.25;;;1.70;99.90;;;;;;4899652;29;20048;-84
2022/03/06 08:05:59;;;;;;;6.72;2.78;;;2.60;99.90;;;;;;4915779;29;20051;-85
2022/03/06 08:08:25;;;;;;;5.63;2.60;;;1.40;99.90;;;;;;4922206;29;20051;-84
2022/03/06 08:10:51;;;;;;;10.57;2.53;;;1.40;99.90;;;;;;4933774;29;20602;-84
2022/03/06 08:13:16;;;;;;;6.95;2.55;;;1.50;99.90;;;;;;4933479;29;20047;-83
2022/03/06 08:15:42;;;;;;;5.68;2.65;;;1.60;99.90;;;;;;4935033;29;20126;-85
2022/03/06 08:18:08;;;;;;;6.05;2.47;;;1.60;99.90;;;;;;4917880;29;20566;-86
2022/03/06 08:20:34;;;;;;;6.00;2.53;;;1.70;99.90;;;;;;4935099;29;20475;-84
2022/03/06 08:23:01;;;;;;;7.88;2.15;;;1.70;99.90;;;;;;4934488;29;20625;-86
2022/03/06 08:25:26;;;;;;;6.53;2.25;;;1.70;99.90;;;;;;4916460;29;20457;-85
2022/03/06 08:27:52;;;;;;;4.07;2.22;;;1.80;99.90;;;;;;4933682;29;20123;-85
2022/03/06 08:30:18;;;;;;;7.65;2.00;;;2.40;99.90;;;;;;4934226;29;20086;-86
2022/03/06 08:32:44;;;;;;;5.32;2.13;;;1.90;99.90;;;;;;4933282;29;20065;-84
2022/03/06 08:35:10;;;;;;;5.80;2.10;;;1.90;99.90;;;;;;4918026;29;20872;-85
2022/03/06 08:37:36;;;;;;;4.75;2.08;;;2.00;99.90;;;;;;4934398;29;20061;-86
2022/03/06 08:40:03;;;;;;;5.65;2.00;;;1.90;99.90;;;;;;4917790;29;20091;-85
2022/03/06 08:42:29;;;;;;;6.75;2.05;;;2.00;99.90;;;;;;4917601;29;20051;-86
2022/03/06 08:45:06;;;;;;;8.18;2.50;;;2.10;99.90;;;;;;4934491;29;20054;-85
2022/03/06 08:47:32;;;;;;;4.53;2.10;;;2.20;99.90;;;;;;4917484;29;20487;-85
2022/03/06 08:49:57;;;;;;;6.43;1.85;;;2.20;99.90;;;;;;4914361;29;20043;-85
2022/03/06 08:52:25;;;;;;;6.68;1.85;;;2.30;99.90;;;;;;4898979;29;20055;-85
2022/03/06 08:54:51;;;;;;;5.47;1.80;;;3.10;99.90;;;;;;4899019;29;20416;-84
2022/03/06 08:57:17;;;;;;;4.05;1.83;;;2.50;99.90;;;;;;4929925;29;20051;-85
2022/03/06 08:59:43;;;;;;;5.97;2.15;;;2.50;99.90;;;;;;4898713;29;20047;-83
2022/03/06 09:02:11;;;;;;;5.38;2.05;;;2.60;99.90;;;;;;4904513;29;20555;-83
2022/03/06 09:04:38;;;;;;;7.55;2.08;;;2.10;99.90;;;;;;4917912;29;20055;-84
2022/03/06 09:07:04;;;;;;;4.20;1.80;;;2.60;99.90;;;;;;4917097;29;20133;-84
2022/03/06 09:09:30;;;;;;;4.80;2.10;;;2.70;99.90;;;;;;4918089;29;20166;-85
2022/03/06 09:12:04;;;;;;;8.00;2.13;;;3.90;99.90;;;;;;4925316;29;20503;-84
2022/03/06 09:14:29;;;;;;;6.13;2.30;;;2.70;99.90;;;;;;4932459;29;20092;-83
2022/03/06 09:16:55;;;;;;;5.90;2.10;;;2.80;99.90;;;;;;4917598;29;20081;-84
2022/03/06 09:19:21;;;;;;;5.82;2.70;;;2.90;99.90;;;;;;4933149;29;20134;-83
2022/03/06 09:21:47;;;;;;;5.18;1.90;;;4.00;99.90;;;;;;4930749;29;20133;-83
2022/03/06 09:24:12;;;;;;;4.68;1.95;;;2.90;99.90;;;;;;4916531;29;20592;-84
2022/03/06 09:26:39;;;;;;;6.10;2.13;;;2.90;99.90;;;;;;4929398;29;20055;-84
2022/03/06 09:29:05;;;;;;;5.97;2.45;;;3.00;99.90;;;;;;4913255;29;20511;-83
2022/03/06 09:31:44;;;;;;;6.40;2.22;;;3.20;99.90;;;;;;4929850;29;20134;-84
2022/03/06 09:34:10;;;;;;;4.40;2.03;;;3.10;99.90;;;;;;4913630;29;20143;-84
2022/03/06 09:36:36;;;;;;;6.72;2.03;;;3.10;99.90;;;;;;4923714;29;20559;-84
2022/03/06 09:39:04;;;;;;;4.38;2.15;;;3.10;99.90;;;;;;4913817;29;20070;-81
2022/03/06 09:41:30;;;;;;;8.05;2.25;;;3.10;99.90;;;;;;4897331;29;20048;-84
2022/03/06 09:43:57;;;;;;;4.97;2.08;;;3.10;99.90;;;;;;4913508;29;20049;-83
2022/03/06 09:46:23;;;;;;;6.57;2.30;;;3.20;99.90;;;;;;4913409;29;20059;-82
2022/03/06 09:48:50;;;;;;;4.70;2.20;;;3.20;99.90;;;;;;4912937;29;20043;-83
2022/03/06 09:51:25;;;;;;;7.40;2.30;;;3.20;99.90;;;;;;4897639;29;20036;-81
2022/03/06 09:53:51;;;;;;;9.48;2.50;;;3.40;99.90;;;;;;4912727;29;20047;-82
2022/03/06 09:56:16;;;;;;;4.80;2.28;;;3.30;99.90;;;;;;4911970;29;20558;-84
2022/03/06 09:58:42;;;;;;;4.25;2.00;;;3.50;99.90;;;;;;4914197;29;20052;-82
2022/03/06 10:01:08;;;;;;;7.78;2.05;;;3.50;99.90;;;;;;4913374;29;20534;-82
2022/03/06 10:03:35;;;;;;;6.75;2.58;;;4.50;99.90;;;;;;4928653;29;20039;-81
2022/03/06 10:06:04;;;;;;;4.97;2.10;;;3.70;99.90;;;;;;4929208;29;20082;-81
2022/03/06 10:08:30;;;;;;;4.57;2.30;;;3.80;99.90;;;;;;4929225;29;20071;-82
2022/03/06 10:11:01;;;;;;;8.18;2.22;;;4.00;99.90;;;;;;4912776;29;20086;-83
2022/03/06 10:13:33;;;;;;;5.65;2.50;;;4.50;99.90;;;;;;4894854;29;20790;-83
2022/03/06 10:16:11;;;;;;;8.55;2.60;;;4.80;99.90;;;;;;4898370;29;20540;-83
2022/03/06 10:18:42;;;;;;;5.43;2.20;;;5.10;99.90;;;;;;4912002;29;20043;-83
2022/03/06 10:21:08;;;;;;;7.35;2.75;;;4.20;99.90;;;;;;4910624;29;20114;-83
2022/03/06 10:23:34;;;;;;;6.15;2.42;;;4.20;99.90;;;;;;4929727;29;20040;-83
2022/03/06 10:26:09;;;;;;;5.38;2.15;;;4.20;99.90;;;;;;4927996;29;20063;-82
2022/03/06 10:28:51;;;;;;;7.43;2.42;;;4.30;99.90;;;;;;4913578;29;20044;-83
2022/03/06 10:31:18;;;;;;;6.97;2.63;;;4.30;99.90;;;;;;4927491;29;20277;-82
2022/03/06 10:33:59;;;;;;;4.32;2.17;;;4.40;99.90;;;;;;4928890;29;20366;-82
2022/03/06 10:36:35;;;;;;;7.60;2.50;;;4.50;99.90;;;;;;4912807;29;20464;-83
2022/03/06 10:39:03;;;;;;;6.80;2.90;;;4.60;99.90;;;;;;4925182;29;20484;-82
2022/03/06 10:41:35;;;;;;;7.38;2.90;;;5.50;99.90;;;;;;4927825;29;20491;-82
2022/03/06 10:44:02;;;;;;;6.80;2.50;;;4.70;99.90;;;;;;4912360;29;20527;-82
2022/03/06 10:46:27;;;;;;;7.47;3.30;;;4.70;99.90;;;;;;4912459;29;20442;-82
2022/03/06 10:48:56;;;;;;;9.10;3.58;;;4.70;99.90;;;;;;4911696;29;20051;-82
2022/03/06 10:51:21;;;;;;;7.40;2.80;;;4.80;99.90;;;;;;4929461;29;20395;-83
2022/03/06 10:53:57;;;;;;;8.15;2.47;;;5.30;99.90;;;;;;4932148;29;20043;-82
2022/03/06 10:56:24;;;;;;;8.27;2.80;;;4.70;99.90;;;;;;4914868;29;20062;-82
2022/03/06 10:58:50;;;;;;;8.25;4.05;;;4.70;99.90;;;;;;4900319;29;20035;-82
2022/03/06 11:01:17;;;;;;;9.02;3.15;;;4.70;99.90;;;;;;4914859;29;20087;-82
2022/03/06 11:03:43;;;;;;;11.20;2.80;;;4.70;99.90;;;;;;4901239;29;20138;-82
2022/03/06 11:06:14;;;;;;;5.68;2.75;;;4.70;99.90;;;;;;4914895;29;20043;-82
2022/03/06 11:08:39;;;;;;;4.50;2.47;;;5.30;99.90;;;;;;4916981;29;20050;-82
2022/03/06 11:11:07;;;;;;;5.55;2.42;;;4.70;99.90;;;;;;4931573;29;20044;-83
2022/03/06 11:13:33;;;;;;;6.75;2.60;;;4.70;99.90;;;;;;4915749;29;20050;-82
2022/03/06 11:16:00;;;;;;;8.15;3.28;;;5.20;99.90;;;;;;4932337;29;20036;-82
2022/03/06 11:18:27;;;;;;;5.55;2.58;;;5.40;99.90;;;;;;4916863;29;20138;-82
2022/03/06 11:20:54;;;;;;;7.95;2.50;;;5.00;99.90;;;;;;4914609;29;20052;-83
2022/03/06 11:23:26;;;;;;;4.38;2.40;;;5.10;99.90;;;;;;4932246;29;20180;-82
2022/03/06 11:26:09;;;;;;;4.03;1.98;;;5.20;99.90;;;;;;4904000;29;20052;-82
2022/03/06 11:28:54;;;;;;;4.45;2.38;;;5.30;99.90;;;;;;4899756;29;20087;-83
2022/03/06 11:31:22;;;;;;;6.50;2.50;;;5.40;99.90;;;;;;4899468;29;20496;-83
2022/03/06 11:34:03;;;;;;;7.53;2.80;;;5.50;99.90;;;;;;4932153;29;20040;-84
2022/03/06 11:36:31;;;;;;;6.40;2.55;;;5.60;99.90;;;;;;4900867;29;20046;-83
2022/03/06 11:39:09;;;;;;;8.05;2.80;;;5.90;99.90;;;;;;4931593;29;20452;-83
2022/03/06 11:41:36;;;;;;;7.75;2.30;;;5.70;99.90;;;;;;4930994;29;20938;-83
2022/03/06 11:44:02;;;;;;;5.25;2.40;;;5.70;99.90;;;;;;4915139;29;20508;-83
2022/03/06 11:46:28;;;;;;;6.00;2.67;;;5.70;99.90;;;;;;4915979;29;20052;-83
2022/03/06 11:49:08;;;;;;;5.20;2.60;;;6.00;99.90;;;;;;4930796;29;20083;-83
2022/03/06 11:51:38;;;;;;;6.25;2.58;;;5.80;99.90;;;;;;4931630;29;20048;-83
2022/03/06 11:54:06;;;;;;;7.82;2.22;;;6.70;99.90;;;;;;4931846;29;20075;-83
2022/03/06 11:56:35;;;;;;;5.88;2.60;;;5.70;99.90;;;;;;4930125;29;20105;-83
2022/03/06 11:59:07;;;;;;;6.53;2.72;;;5.90;99.90;;;;;;4899977;29;20455;-84
2022/03/06 12:01:36;;;;;;;8.55;2.70;;;5.90;99.90;;;;;;4930459;29;20077;-84
2022/03/06 12:04:10;;;;;;;6.97;2.42;;;6.70;99.90;;;;;;4931011;29;20094;-84
2022/03/06 12:06:39;;;;;;;8.32;2.80;;;6.00;99.90;;;;;;4931594;29;20047;-83
2022/03/06 12:09:17;;;;;;;5.90;2.42;;;6.00;99.90;;;;;;4929545;29;20091;-83
2022/03/06 12:11:44;;;;;;;7.70;3.05;;;6.00;99.90;;;;;;4911594;29;20059;-84
2022/03/06 12:14:14;;;;;;;7.30;3.00;;;5.90;99.90;;;;;;4925284;29;20055;-83
2022/03/06 12:16:58;;;;;;;9.30;2.65;;;5.90;99.90;;;;;;4914489;29;20096;-83
2022/03/06 12:19:36;;;;;;;5.72;2.70;;;5.90;99.90;;;;;;4914779;29;20107;-85
2022/03/06 12:22:15;;;;;;;6.75;2.50;;;6.00;99.90;;;;;;4914602;29;20057;-84
2022/03/06 12:24:43;;;;;;;5.13;2.38;;;6.00;99.90;;;;;;4931006;29;20044;-85
2022/03/06 12:27:16;;;;;;;6.38;2.25;;;5.90;99.90;;;;;;4916445;29;20051;-84
2022/03/06 12:29:46;;;;;;;6.85;2.35;;;5.90;99.90;;;;;;4934814;29;20055;-83
2022/03/06 12:32:25;;;;;;;5.68;2.53;;;5.90;99.90;;;;;;4932899;29;20236;-85
2022/03/06 12:35:11;;;;;;;5.80;2.38;;;6.50;99.90;;;;;;4918652;29;20083;-84
2022/03/06 12:37:39;;;;;;;8.23;2.65;;;5.90;99.90;;;;;;4917902;29;20046;-84
2022/03/06 12:40:09;;;;;;;5.22;2.28;;;6.00;99.90;;;;;;4918622;29;20047;-83
2022/03/06 12:42:36;;;;;;;9.02;2.85;;;6.10;99.90;;;;;;4933281;29;20051;-81
2022/03/06 12:45:10;;;;;;;7.85;2.60;;;6.00;99.90;;;;;;4917791;29;20050;-84
2022/03/06 12:47:37;;;;;;;5.85;2.35;;;6.00;99.90;;;;;;4934563;29;20043;-83
2022/03/06 12:50:05;;;;;;;7.45;2.15;;;6.00;99.90;;;;;;4914742;29;20039;-84
2022/03/06 12:52:31;;;;;;;11.82;2.30;;;6.00;99.90;;;;;;4898567;29;20043;-84
2022/03/06 12:55:00;;;;;;;6.20;2.40;;;6.80;99.90;;;;;;4899599;29;20058;-85